createdAt,value
2019-05-22T00:01:10.039Z,88.55
2019-05-22T00:03:44.441Z,89.43
2019-05-22T00:06:13.902Z,91.06
2019-05-22T00:08:42.862Z,93.05
2019-05-22T00:11:11.447Z,93.77
2019-05-22T00:13:40.535Z,94.47
2019-05-22T00:16:08.330Z,95.10
2019-05-22T00:18:36.959Z,95.96
2019-05-22T00:21:03.710Z,96.62
2019-05-22T00:23:30.816Z,96.99
2019-05-22T00:25:57.232Z,97.39
2019-05-22T00:28:24.788Z,97.94
2019-05-22T00:30:51.960Z,98.51
2019-05-22T00:33:18.634Z,98.75
2019-05-22T00:35:46.651Z,98.42
2019-05-22T00:38:14.453Z,98.42
2019-05-22T00:40:50.328Z,97.97
2019-05-22T00:43:18.035Z,97.38
2019-05-22T00:45:48.198Z,96.63
2019-05-22T00:48:15.549Z,96.08
2019-05-22T00:50:48.913Z,95.10
2019-05-22T00:53:47.361Z,94.65
2019-05-22T00:56:28.899Z,94.31
2019-05-22T00:59:01.275Z,93.14
2019-05-22T01:01:36.973Z,92.87
2019-05-22T01:04:05.383Z,92.25
2019-05-22T03:05:31.975Z,88.14
2019-05-22T03:07:58.835Z,88.05
2019-05-22T03:10:25.966Z,88.56
2019-05-22T03:12:52.829Z,88.64
2019-05-22T03:15:21.209Z,88.38
2019-05-22T03:17:50.584Z,88.52
2019-05-22T03:20:20.337Z,88.73
2019-05-22T03:23:13.693Z,88.52
2019-05-22T03:25:41.417Z,88.40
2019-05-22T03:28:10.149Z,88.69
2019-05-22T03:30:39.365Z,88.65
2019-05-22T03:33:07.323Z,88.62
2019-05-22T03:35:42.851Z,88.77
2019-05-22T03:38:09.996Z,89.00
2019-05-22T03:40:37.085Z,89.03
2019-05-22T03:43:14.546Z,88.82
2019-05-22T03:45:41.637Z,88.64
2019-05-22T03:48:09.409Z,88.62
2019-05-22T03:50:36.839Z,88.69
2019-05-22T03:53:13.285Z,88.74
2019-05-22T03:55:40.275Z,88.71
2019-05-22T03:58:08.256Z,88.66
2019-05-22T04:00:35.543Z,88.75
2019-05-22T04:03:04.288Z,88.66
2019-05-22T04:05:31.249Z,88.54
2019-05-22T04:08:04.499Z,88.56
2019-05-22T04:10:33.622Z,88.75
2019-05-22T04:13:00.665Z,88.84
2019-05-22T04:15:27.982Z,89.01
2019-05-22T04:18:04.601Z,89.28
2019-05-22T04:20:31.947Z,89.46
2019-05-22T04:23:01.527Z,89.60
2019-05-22T04:25:29.010Z,89.86
2019-05-22T04:27:56.246Z,89.89
2019-05-22T04:30:22.897Z,89.82
2019-05-22T04:33:01.741Z,90.10
2019-05-22T04:35:28.381Z,90.21
2019-05-22T04:37:56.269Z,90.08
2019-05-22T04:40:53.569Z,90.10
2019-05-22T04:43:23.362Z,89.98
2019-05-22T04:45:50.592Z,90.03
2019-05-22T04:48:21.111Z,90.23
2019-05-22T04:50:49.443Z,90.43
2019-05-22T04:53:17.174Z,90.38
2019-05-22T04:55:44.484Z,90.40
2019-05-22T04:58:11.336Z,90.47
2019-05-22T05:00:37.959Z,90.54
2019-05-22T05:03:04.653Z,90.66
2019-05-22T05:05:34.026Z,90.53
2019-05-22T05:08:01.327Z,91.06
2019-05-22T05:10:30.793Z,90.92
2019-05-22T05:12:58.012Z,91.20
2019-05-22T05:15:24.703Z,91.21
2019-05-22T05:17:51.217Z,90.89
2019-05-22T05:20:22.397Z,91.04
2019-05-22T05:22:47.778Z,91.26
2019-05-22T05:25:16.466Z,90.93
2019-05-22T05:27:43.329Z,90.34
2019-05-22T05:30:10.339Z,90.53
2019-05-22T05:32:37.368Z,90.64
2019-05-22T05:35:06.568Z,90.68
2019-05-22T05:37:34.015Z,90.20
2019-05-22T05:40:24.184Z,89.54
2019-05-22T05:42:50.887Z,90.05
2019-05-22T05:45:17.340Z,90.35
2019-05-22T05:47:44.544Z,90.50
2019-05-22T05:52:45.363Z,91.60
2019-05-22T05:55:12.358Z,91.84
2019-05-22T05:58:22.351Z,91.45
2019-05-22T06:00:53.348Z,90.77
2019-05-22T06:03:33.976Z,89.88
2019-05-22T06:06:19.142Z,89.52
2019-05-22T06:08:45.798Z,89.60
2019-05-22T06:11:40.243Z,89.45
2019-05-22T06:14:09.339Z,88.83
2019-05-22T06:17:13.337Z,89.57
2019-05-22T06:19:42.955Z,89.78
2019-05-22T06:22:09.701Z,89.31
2019-05-22T06:24:56.606Z,89.24
2019-05-22T06:27:27.684Z,88.79
2019-05-22T06:30:02.016Z,88.36
2019-05-22T06:33:33.396Z,87.52
2019-05-22T06:36:01.978Z,87.73
2019-05-22T06:38:48.709Z,87.53
2019-05-22T06:41:18.829Z,87.33
2019-05-22T06:44:26.945Z,87.68
2019-05-22T06:46:53.877Z,88.05
2019-05-22T06:49:42.519Z,87.38
2019-05-22T06:52:09.816Z,87.08
2019-05-22T06:54:37.782Z,86.82
2019-05-22T06:57:07.862Z,86.71
2019-05-22T06:59:35.042Z,86.69
2019-05-22T07:02:10.879Z,87.30
2019-05-22T07:04:45.612Z,86.79
2019-05-22T07:07:13.323Z,86.31
2019-05-22T07:09:41.237Z,85.99
2019-05-22T07:12:24.198Z,86.17
2019-05-22T07:15:42.283Z,86.30
2019-05-22T07:18:14.025Z,85.74
2019-05-22T07:20:42.144Z,85.12
2019-05-22T07:23:16.077Z,84.00
2019-05-22T07:25:43.850Z,84.17
2019-05-22T07:28:10.750Z,82.93
2019-05-22T07:30:38.192Z,82.51
2019-05-22T07:33:05.097Z,82.15
2019-05-22T07:35:46.186Z,81.39
2019-05-22T07:38:00.609Z,80.97
2019-05-22T07:40:30.772Z,81.05
2019-05-22T07:42:57.677Z,80.82
2019-05-22T07:45:28.718Z,80.74
2019-05-22T07:47:56.549Z,79.94
2019-05-22T07:50:23.670Z,80.58
2019-05-22T07:52:50.399Z,80.40
2019-05-22T07:55:18.993Z,80.85
2019-05-22T07:57:54.758Z,80.75
2019-05-22T08:00:21.423Z,81.08
2019-05-22T08:02:49.581Z,81.21
2019-05-22T08:05:16.834Z,81.65
2019-05-22T08:07:45.214Z,81.14
2019-05-22T08:10:13.405Z,81.27
2019-05-22T08:12:40.008Z,82.04
2019-05-22T08:15:08.007Z,82.46
2019-05-22T08:17:34.572Z,82.75
2019-05-22T08:20:01.273Z,83.11
2019-05-22T08:22:28.697Z,83.09
2019-05-22T08:24:55.999Z,83.46
2019-05-22T08:27:22.727Z,83.69
2019-05-22T08:29:49.877Z,84.34
2019-05-22T08:32:17.476Z,84.93
2019-05-22T08:34:44.142Z,85.04
2019-05-22T08:37:15.234Z,85.32
2019-05-22T08:39:43.388Z,85.60
2019-05-22T08:42:12.443Z,86.23
2019-05-22T08:44:39.597Z,86.88
2019-05-22T08:47:07.451Z,87.08
2019-05-22T08:49:34.575Z,87.19
2019-05-22T08:52:01.490Z,86.49
2019-05-22T08:54:29.915Z,84.91
2019-05-22T08:56:56.704Z,84.62
2019-05-22T08:59:23.730Z,84.58
2019-05-22T09:01:50.869Z,84.76
2019-05-22T09:04:17.854Z,83.89
2019-05-22T09:06:44.523Z,83.93
2019-05-22T09:09:11.705Z,84.45
2019-05-22T09:11:38.581Z,83.81
2019-05-22T09:14:05.754Z,83.10
2019-05-22T09:16:38.109Z,82.41
2019-05-22T09:19:05.782Z,81.36
2019-05-22T09:21:33.695Z,81.26
2019-05-22T09:24:00.798Z,81.26
2019-05-22T09:26:28.480Z,80.01
2019-05-22T09:28:55.109Z,80.14
2019-05-22T09:31:21.735Z,80.34
2019-05-22T09:33:49.091Z,80.27
2019-05-22T09:36:16.469Z,80.13
2019-05-22T09:38:45.303Z,80.93
2019-05-22T09:41:12.000Z,80.25
2019-05-22T09:43:38.908Z,80.74
2019-05-22T09:46:05.948Z,81.03
2019-05-22T09:48:33.547Z,80.08
2019-05-22T09:51:02.306Z,79.84
2019-05-22T09:53:30.533Z,79.69
2019-05-22T09:55:58.268Z,80.09
2019-05-22T09:58:25.005Z,79.54
2019-05-22T10:00:52.162Z,79.62
2019-05-22T10:03:19.481Z,79.79
2019-05-22T10:05:47.739Z,79.33
2019-05-22T10:08:14.378Z,79.66
2019-05-22T10:10:43.392Z,78.47
2019-05-22T10:13:10.171Z,79.60
2019-05-22T10:15:36.876Z,79.07
2019-05-22T10:18:03.558Z,78.33
2019-05-22T10:20:30.570Z,78.54
2019-05-22T10:23:12.496Z,77.88
2019-05-22T10:25:27.016Z,77.92
2019-05-22T10:28:03.845Z,77.41
2019-05-22T10:30:31.830Z,76.49
2019-05-22T10:32:58.662Z,76.52
2019-05-22T10:35:28.757Z,75.30
2019-05-22T10:37:56.055Z,75.88
2019-05-22T10:40:23.073Z,78.05
2019-05-22T10:42:49.973Z,78.16
2019-05-22T10:45:16.764Z,78.28
2019-05-22T10:47:43.368Z,78.70
2019-05-22T10:50:10.028Z,78.87
2019-05-22T10:52:37.015Z,78.90
2019-05-22T10:55:04.446Z,77.96
2019-05-22T10:57:33.050Z,77.58
2019-05-22T11:00:01.006Z,77.18
2019-05-22T11:02:28.967Z,77.58
2019-05-22T11:04:55.914Z,77.79
2019-05-22T11:07:22.974Z,77.34
2019-05-22T11:09:49.606Z,77.13
2019-05-22T11:12:16.557Z,76.22
2019-05-22T11:14:47.066Z,76.38
2019-05-22T11:17:14.794Z,77.01
2019-05-22T11:19:41.411Z,77.22
2019-05-22T11:22:11.177Z,76.49
2019-05-22T11:24:37.895Z,75.79
2019-05-22T11:27:04.773Z,76.27
2019-05-22T11:29:32.132Z,77.34
2019-05-22T11:31:59.031Z,78.61
2019-05-22T11:34:25.988Z,79.45
2019-05-22T11:36:53.921Z,79.63
2019-05-22T11:39:38.156Z,80.46
2019-05-22T11:41:52.114Z,80.32
2019-05-22T11:44:18.867Z,81.01
2019-05-22T11:46:45.519Z,81.06
2019-05-22T11:49:12.961Z,80.76
2019-05-22T11:51:39.811Z,80.22
2019-05-22T11:54:09.619Z,79.42
2019-05-22T11:56:35.385Z,79.86
2019-05-22T11:59:02.641Z,79.85
2019-05-22T12:01:29.498Z,79.57
2019-05-22T12:03:58.127Z,79.27
2019-05-22T12:06:25.291Z,79.70
2019-05-22T12:08:52.321Z,79.60
2019-05-22T12:11:19.673Z,80.60
2019-05-22T12:13:46.479Z,80.08
2019-05-22T12:16:13.106Z,78.76
2019-05-22T12:18:40.298Z,77.65
2019-05-22T12:21:07.366Z,76.35
2019-05-22T12:23:34.087Z,77.44
2019-05-22T12:26:01.806Z,76.80
2019-05-22T12:28:30.195Z,75.84
2019-05-22T12:30:57.467Z,76.23
2019-05-22T12:33:25.060Z,77.36
2019-05-22T12:35:52.261Z,77.95
2019-05-22T12:38:21.315Z,79.15
2019-05-22T12:40:48.122Z,79.53
2019-05-22T12:43:15.347Z,79.76
2019-05-22T12:45:42.161Z,80.05
2019-05-22T12:48:09.500Z,81.22
2019-05-22T12:50:40.559Z,80.25
2019-05-22T12:53:09.447Z,78.09
2019-05-22T12:55:37.086Z,76.38
2019-05-22T12:58:04.962Z,74.49
2019-05-22T13:00:35.827Z,72.61
2019-05-22T13:03:02.771Z,72.97
2019-05-22T13:05:29.520Z,73.69
2019-05-22T13:07:57.606Z,74.47
2019-05-22T13:10:25.253Z,76.14
2019-05-22T13:12:52.263Z,76.11
2019-05-22T13:15:21.060Z,77.85
2019-05-22T13:17:48.429Z,77.60
2019-05-22T13:20:18.874Z,74.87
2019-05-22T13:22:47.412Z,73.63
2019-05-22T13:25:16.209Z,71.63
2019-05-22T13:27:43.969Z,73.04
2019-05-22T13:30:12.433Z,73.42
2019-05-22T13:32:39.198Z,73.53
2019-05-22T13:35:06.904Z,73.91
2019-05-22T13:37:34.269Z,73.90
2019-05-22T13:40:01.864Z,73.90
2019-05-22T13:42:28.670Z,73.38
2019-05-22T13:44:55.828Z,74.98
2019-05-22T13:47:23.081Z,74.18
2019-05-22T13:49:50.887Z,73.08
2019-05-22T13:52:18.596Z,71.79
2019-05-22T13:54:46.052Z,71.78
2019-05-22T13:57:13.028Z,72.78
2019-05-22T13:59:39.749Z,72.78
2019-05-22T14:02:07.194Z,72.85
2019-05-22T14:04:34.830Z,73.89
2019-05-22T14:07:02.497Z,74.07
2019-05-22T14:09:29.363Z,74.82
2019-05-22T14:11:55.949Z,76.74
2019-05-22T14:14:23.082Z,77.52
2019-05-22T14:16:49.714Z,78.26
2019-05-22T14:19:16.467Z,80.22
2019-05-22T14:21:50.907Z,81.76
2019-05-22T14:24:11.861Z,82.91
2019-05-22T14:28:14.903Z,84.89
2019-05-22T14:30:42.557Z,85.70
2019-05-22T14:33:09.212Z,84.22
2019-05-22T14:35:48.502Z,83.12
2019-05-22T14:38:08.866Z,83.38
2019-05-22T14:40:36.546Z,82.25
2019-05-22T14:43:03.292Z,81.64
2019-05-22T14:45:29.824Z,80.17
2019-05-22T14:47:57.092Z,80.18
2019-05-22T14:50:24.010Z,79.64
2019-05-22T14:52:51.026Z,79.50
2019-05-22T14:55:17.792Z,80.34
2019-05-22T14:57:44.782Z,79.86
2019-05-22T15:00:12.042Z,79.21
2019-05-22T15:02:39.220Z,78.44
2019-05-22T15:05:08.366Z,78.32
2019-05-22T15:07:36.201Z,79.16
2019-05-22T15:10:03.934Z,79.79
2019-05-22T15:12:30.750Z,80.03
2019-05-22T15:14:57.365Z,79.62
2019-05-22T15:17:32.474Z,80.25
2019-05-22T15:19:52.507Z,80.08
2019-05-22T15:22:19.399Z,80.88
2019-05-22T15:24:46.013Z,80.26
2019-05-22T15:27:13.664Z,80.56
2019-05-22T15:29:40.206Z,80.39
2019-05-22T15:32:08.668Z,78.31
2019-05-22T15:34:37.095Z,76.85
2019-05-22T15:37:04.135Z,76.39
2019-05-22T15:39:32.243Z,76.68
2019-05-22T15:41:59.980Z,75.92
2019-05-22T15:44:27.273Z,75.23
2019-05-22T15:46:54.454Z,74.86
2019-05-22T15:49:22.039Z,74.68
2019-05-22T15:51:49.590Z,74.54
2019-05-22T15:54:17.824Z,73.69
2019-05-22T15:56:50.090Z,72.84
2019-05-22T15:59:16.869Z,72.60
2019-05-22T16:01:47.068Z,73.25
2019-05-22T16:04:14.267Z,72.82
2019-05-22T16:06:41.265Z,72.49
2019-05-22T16:09:12.505Z,72.42
2019-05-22T16:11:40.926Z,71.43
2019-05-22T16:14:09.900Z,71.06
2019-05-22T16:16:37.153Z,71.75
2019-05-22T16:19:04.800Z,71.47
2019-05-22T16:21:32.374Z,72.27
2019-05-22T16:24:00.902Z,71.45
2019-05-22T16:26:27.926Z,71.42
2019-05-22T16:28:54.835Z,71.83
2019-05-22T16:31:24.989Z,72.01
2019-05-22T16:33:55.750Z,72.64
2019-05-22T16:36:23.582Z,72.78
2019-05-22T16:38:50.387Z,72.16
2019-05-22T16:41:17.993Z,72.16
2019-05-22T16:43:49.329Z,72.73
2019-05-22T16:46:15.816Z,72.25
2019-05-22T16:48:43.180Z,72.37
2019-05-22T16:51:10.112Z,72.23
2019-05-22T16:53:37.138Z,70.23
2019-05-22T16:56:04.804Z,70.43
2019-05-22T16:58:33.450Z,70.56
2019-05-22T17:01:01.024Z,71.02
2019-05-22T17:03:27.681Z,70.33
2019-05-22T17:05:54.859Z,70.07
2019-05-22T17:08:22.122Z,70.47
2019-05-22T17:10:52.378Z,68.85
2019-05-22T17:13:19.195Z,67.65
2019-05-22T17:15:46.090Z,67.03
2019-05-22T17:18:14.760Z,67.27
2019-05-22T17:20:42.474Z,67.88
2019-05-22T17:23:09.155Z,68.04
2019-05-22T17:25:36.633Z,67.82
2019-05-22T17:28:03.634Z,68.48
2019-05-22T17:30:31.800Z,68.60
2019-05-22T17:32:59.059Z,68.19
2019-05-22T17:35:26.195Z,68.96
2019-05-22T17:37:53.075Z,68.07
2019-05-22T17:40:21.004Z,67.63
2019-05-22T17:42:51.741Z,66.73
2019-05-22T17:45:20.388Z,67.12
2019-05-22T17:47:46.904Z,67.50
2019-05-22T17:50:26.235Z,68.51
2019-05-22T17:52:46.604Z,68.28
2019-05-22T17:55:14.274Z,68.73
2019-05-22T17:57:41.014Z,68.06
2019-05-22T18:00:15.302Z,67.67
2019-05-22T18:02:42.145Z,67.74
2019-05-22T18:05:10.388Z,67.81
2019-05-22T18:07:38.036Z,67.64
2019-05-22T18:10:05.836Z,67.95
2019-05-22T18:12:32.674Z,67.60
2019-05-22T18:15:11.572Z,67.48
2019-05-22T18:17:38.887Z,67.49
2019-05-22T18:20:53.712Z,67.46
2019-05-22T18:23:22.604Z,67.88
2019-05-22T18:25:49.608Z,68.67
2019-05-22T18:28:17.129Z,69.08
2019-05-22T18:30:46.525Z,68.92
2019-05-22T18:33:13.257Z,69.56
2019-05-22T18:35:40.255Z,70.03
2019-05-22T18:38:07.262Z,70.80
2019-05-22T18:40:34.238Z,70.58
2019-05-22T18:43:00.983Z,71.06
2019-05-22T18:45:28.034Z,71.21
2019-05-22T18:47:54.930Z,71.90
2019-05-22T18:50:23.377Z,72.62
2019-05-22T18:53:28.118Z,72.74
2019-05-22T18:55:57.869Z,73.04
2019-05-22T18:58:29.678Z,73.47
2019-05-22T19:00:57.039Z,73.80
2019-05-22T19:03:25.564Z,74.22
2019-05-22T19:05:56.490Z,74.26
2019-05-22T19:10:59.273Z,75.06
2019-05-22T19:13:28.304Z,75.35
2019-05-22T19:15:55.787Z,75.63
2019-05-22T19:18:30.178Z,76.15
2019-05-22T19:21:05.796Z,77.14
2019-05-22T19:23:35.853Z,77.48
2019-05-22T19:26:05.722Z,78.24
2019-05-22T19:28:43.679Z,78.98
2019-05-22T19:31:43.868Z,79.74
2019-05-22T19:34:11.537Z,79.79
2019-05-22T19:36:39.051Z,80.67
2019-05-22T19:39:06.891Z,81.08
2019-05-22T19:41:40.471Z,81.80
2019-05-22T19:44:08.602Z,82.75
2019-05-22T19:46:36.708Z,82.84
2019-05-22T19:49:03.705Z,82.78
2019-05-22T19:51:30.649Z,82.87
2019-05-22T19:53:57.260Z,83.04
2019-05-22T19:56:24.171Z,83.32
2019-05-22T19:58:55.622Z,83.32
2019-05-22T20:01:22.202Z,83.15
2019-05-22T20:03:52.584Z,83.54
2019-05-22T20:06:20.266Z,83.62
2019-05-22T20:08:47.140Z,83.91
2019-05-22T20:11:14.775Z,83.95
2019-05-22T20:13:42.438Z,84.28
2019-05-22T20:16:09.375Z,84.39
2019-05-22T20:18:36.119Z,84.60
2019-05-22T20:21:03.824Z,84.72
2019-05-22T20:23:36.304Z,84.64
2019-05-22T20:26:00.885Z,84.92
2019-05-22T20:28:27.483Z,85.04
2019-05-22T20:30:54.261Z,85.17
2019-05-22T20:33:26.468Z,85.16
2019-05-22T20:35:51.711Z,84.96
2019-05-22T20:38:18.435Z,84.75
2019-05-22T20:40:45.426Z,84.60
2019-05-22T20:43:18.878Z,84.68
2019-05-22T20:45:47.163Z,84.53
2019-05-22T20:48:29.784Z,84.50
2019-05-22T20:50:59.040Z,84.27
2019-05-22T20:53:26.630Z,84.51
2019-05-22T20:55:53.791Z,84.92
2019-05-22T20:59:15.678Z,84.95
2019-05-22T21:01:45.384Z,85.10
2019-05-22T21:04:13.190Z,85.59
2019-05-22T21:06:45.731Z,86.08
2019-05-22T21:09:13.833Z,86.46
2019-05-22T21:11:42.163Z,86.50
2019-05-22T21:14:08.952Z,86.63
2019-05-22T21:16:35.733Z,86.35
2019-05-22T21:19:03.665Z,86.51
2019-05-22T21:21:31.782Z,86.39
2019-05-22T21:24:09.839Z,86.61
2019-05-22T21:26:28.131Z,86.89
2019-05-22T21:28:56.418Z,86.69
2019-05-22T21:31:24.022Z,87.53
2019-05-22T21:33:51.084Z,87.52
2019-05-22T21:36:19.385Z,87.69
2019-05-22T21:38:46.305Z,87.88
2019-05-22T21:41:13.309Z,88.51
2019-05-22T21:43:40.202Z,88.89
2019-05-22T21:46:06.854Z,88.86
2019-05-22T21:48:47.974Z,89.24
2019-05-22T21:51:17.650Z,89.48
2019-05-22T21:53:44.133Z,89.54
2019-05-22T21:56:10.639Z,89.48
2019-05-22T21:58:37.775Z,89.90
2019-05-22T22:01:22.434Z,89.79
2019-05-22T22:03:54.895Z,89.68
2019-05-22T22:06:22.559Z,90.04
2019-05-22T22:08:49.492Z,90.16
2019-05-22T22:11:17.699Z,90.07
2019-05-22T22:13:44.597Z,89.97
2019-05-22T22:16:12.049Z,90.25
2019-05-22T22:18:39.281Z,89.83
2019-05-22T22:21:05.872Z,90.13
2019-05-22T22:23:35.723Z,90.31
2019-05-22T22:26:03.153Z,90.28
2019-05-22T22:28:30.628Z,90.30
2019-05-22T22:30:59.736Z,90.56
2019-05-22T22:33:28.013Z,91.12
2019-05-22T22:35:54.697Z,91.12
2019-05-22T22:38:24.115Z,91.03
2019-05-22T22:40:51.194Z,90.99
2019-05-22T22:43:17.870Z,91.03
2019-05-22T22:45:53.710Z,91.28
2019-05-22T22:48:22.931Z,91.18
2019-05-22T22:50:49.528Z,91.50
2019-05-22T22:53:17.776Z,91.32
2019-05-22T22:55:44.457Z,91.53
2019-05-22T22:58:17.166Z,91.22
2019-05-22T23:00:42.763Z,91.31
2019-05-22T23:03:10.971Z,91.22
2019-05-22T23:05:38.083Z,90.90
2019-05-22T23:08:07.242Z,90.74
2019-05-22T23:10:34.397Z,90.73
2019-05-22T23:13:00.995Z,90.98
2019-05-22T23:15:29.105Z,91.33
2019-05-22T23:17:55.749Z,91.02
2019-05-22T23:20:21.937Z,90.90
2019-05-22T23:22:48.710Z,91.14
2019-05-22T23:25:16.448Z,91.67
2019-05-22T23:27:44.538Z,91.96
2019-05-22T23:30:11.180Z,91.83
2019-05-22T23:32:38.397Z,92.15
2019-05-22T23:35:06.949Z,92.29
2019-05-22T23:37:34.987Z,92.59
2019-05-22T23:40:02.187Z,92.69
2019-05-22T23:42:34.382Z,92.78
2019-05-22T23:45:02.953Z,92.86
2019-05-22T23:47:31.358Z,92.49
2019-05-22T23:49:58.004Z,92.54
2019-05-22T23:52:25.179Z,92.63
2019-05-22T23:54:53.178Z,92.52
2019-05-22T23:57:19.955Z,92.54
2019-05-22T23:59:50.170Z,92.40
